sensor_id;sensor_type;location;lat;lon;timestamp;P1;durP1;ratioP1;P2;durP2;ratioP2
25365;SDS011;13315;48.274;-1.900;2024-01-15T00:00:51;16.98;;;8.00;;
25365;SDS011;13315;48.274;-1.900;2024-01-15T00:03:17;10.13;;;9.32;;
25365;SDS011;13315;48.274;-1.900;2024-01-15T00:05:43;12.68;;;8.48;;
25365;SDS011;13315;48.274;-1.900;2024-01-15T00:08:09;15.65;;;8.38;;
25365;SDS011;13315;48.274;-1.900;2024-01-15T00:10:35;8.75;;;7.15;;
25365;SDS011;13315;48.274;-1.900;2024-01-15T00:13:01;7.35;;;6.63;;
25365;SDS011;13315;48.274;-1.900;2024-01-15T00:15:27;9.57;;;6.68;;
25365;SDS011;13315;48.274;-1.900;2024-01-15T00:17:55;9.50;;;8.52;;
25365;SDS011;13315;48.274;-1.900;2024-01-15T00:20:21;9.05;;;7.45;;
25365;SDS011;13315;48.274;-1.900;2024-01-15T00:22:47;8.38;;;7.72;;
25365;SDS011;13315;48.274;-1.900;2024-01-15T00:25:14;7.95;;;7.20;;
25365;SDS011;13315;48.274;-1.900;2024-01-15T00:27:40;8.00;;;7.32;;
25365;SDS011;13315;48.274;-1.900;2024-01-15T00:30:06;9.20;;;6.22;;
25365;SDS011;13315;48.274;-1.900;2024-01-15T00:32:33;9.70;;;7.28;;
25365;SDS011;13315;48.274;-1.900;2024-01-15T00:34:59;7.78;;;7.03;;
25365;SDS011;13315;48.274;-1.900;2024-01-15T00:37:25;7.68;;;6.97;;
25365;SDS011;13315;48.274;-1.900;2024-01-15T00:39:51;10.25;;;5.47;;
25365;SDS011;13315;48.274;-1.900;2024-01-15T00:42:17;7.90;;;6.50;;
25365;SDS011;13315;48.274;-1.900;2024-01-15T00:44:43;9.05;;;7.43;;
25365;SDS011;13315;48.274;-1.900;2024-01-15T00:47:09;7.90;;;7.40;;
25365;SDS011;13315;48.274;-1.900;2024-01-15T00:49:35;7.30;;;6.60;;
25365;SDS011;13315;48.274;-1.900;2024-01-15T00:52:02;7.80;;;7.15;;
25365;SDS011;13315;48.274;-1.900;2024-01-15T00:54:28;6.18;;;5.85;;
25365;SDS011;13315;48.274;-1.900;2024-01-15T00:56:54;6.70;;;6.25;;
25365;SDS011;13315;48.274;-1.900;2024-01-15T00:59:20;8.02;;;7.38;;
25365;SDS011;13315;48.274;-1.900;2024-01-15T01:01:46;6.47;;;5.97;;
25365;SDS011;13315;48.274;-1.900;2024-01-15T01:04:13;6.90;;;6.40;;
25365;SDS011;13315;48.274;-1.900;2024-01-15T01:06:39;11.52;;;7.88;;
25365;SDS011;13315;48.274;-1.900;2024-01-15T01:09:05;9.48;;;7.30;;
25365;SDS011;13315;48.274;-1.900;2024-01-15T01:11:31;9.68;;;7.57;;
25365;SDS011;13315;48.274;-1.900;2024-01-15T01:13:57;6.50;;;6.10;;
25365;SDS011;13315;48.274;-1.900;2024-01-15T01:16:23;8.75;;;7.15;;
25365;SDS011;13315;48.274;-1.900;2024-01-15T01:18:49;8.45;;;7.88;;
25365;SDS011;13315;48.274;-1.900;2024-01-15T01:21:16;6.40;;;5.75;;
25365;SDS011;13315;48.274;-1.900;2024-01-15T01:23:42;10.38;;;9.38;;
25365;SDS011;13315;48.274;-1.900;2024-01-15T01:26:08;8.38;;;7.78;;
25365;SDS011;13315;48.274;-1.900;2024-01-15T01:28:34;7.57;;;7.07;;
25365;SDS011;13315;48.274;-1.900;2024-01-15T01:31:00;10.68;;;8.65;;
25365;SDS011;13315;48.274;-1.900;2024-01-15T01:33:26;8.23;;;7.63;;
25365;SDS011;13315;48.274;-1.900;2024-01-15T01:35:52;6.93;;;6.43;;
25365;SDS011;13315;48.274;-1.900;2024-01-15T01:38:18;8.18;;;7.38;;
25365;SDS011;13315;48.274;-1.900;2024-01-15T01:40:44;6.88;;;6.40;;
25365;SDS011;13315;48.274;-1.900;2024-01-15T01:43:11;8.15;;;7.45;;
25365;SDS011;13315;48.274;-1.900;2024-01-15T01:45:37;6.38;;;5.97;;
25365;SDS011;13315;48.274;-1.900;2024-01-15T01:48:03;7.93;;;7.22;;
25365;SDS011;13315;48.274;-1.900;2024-01-15T01:50:30;9.18;;;7.30;;
25365;SDS011;13315;48.274;-1.900;2024-01-15T01:52:58;10.15;;;9.18;;
25365;SDS011;13315;48.274;-1.900;2024-01-15T01:55:25;14.70;;;9.45;;
25365;SDS011;13315;48.274;-1.900;2024-01-15T01:57:52;8.55;;;7.85;;
25365;SDS011;13315;48.274;-1.900;2024-01-15T02:00:19;9.73;;;8.93;;
25365;SDS011;13315;48.274;-1.900;2024-01-15T02:02:45;8.90;;;8.38;;
25365;SDS011;13315;48.274;-1.900;2024-01-15T02:05:12;9.00;;;8.25;;
25365;SDS011;13315;48.274;-1.900;2024-01-15T02:07:38;9.70;;;8.73;;
25365;SDS011;13315;48.274;-1.900;2024-01-15T02:10:04;9.00;;;8.40;;
25365;SDS011;13315;48.274;-1.900;2024-01-15T02:12:31;9.85;;;9.05;;
25365;SDS011;13315;48.274;-1.900;2024-01-15T02:14:57;9.90;;;9.30;;
25365;SDS011;13315;48.274;-1.900;2024-01-15T02:17:23;9.05;;;8.45;;
25365;SDS011;13315;48.274;-1.900;2024-01-15T02:19:49;8.93;;;8.30;;
25365;SDS011;13315;48.274;-1.900;2024-01-15T02:22:15;9.18;;;8.50;;
25365;SDS011;13315;48.274;-1.900;2024-01-15T02:24:42;8.60;;;7.85;;
25365;SDS011;13315;48.274;-1.900;2024-01-15T02:27:08;8.13;;;7.35;;
25365;SDS011;13315;48.274;-1.900;2024-01-15T02:29:34;7.05;;;6.65;;
25365;SDS011;13315;48.274;-1.900;2024-01-15T02:32:04;8.35;;;7.85;;
25365;SDS011;13315;48.274;-1.900;2024-01-15T02:34:31;9.30;;;8.63;;
25365;SDS011;13315;48.274;-1.900;2024-01-15T02:36:58;9.55;;;8.85;;
25365;SDS011;13315;48.274;-1.900;2024-01-15T02:39:24;9.63;;;8.75;;
25365;SDS011;13315;48.274;-1.900;2024-01-15T02:41:50;7.03;;;6.60;;
25365;SDS011;13315;48.274;-1.900;2024-01-15T02:44:17;8.43;;;7.15;;
25365;SDS011;13315;48.274;-1.900;2024-01-15T02:46:43;8.98;;;8.10;;
25365;SDS011;13315;48.274;-1.900;2024-01-15T02:49:09;9.23;;;8.23;;
25365;SDS011;13315;48.274;-1.900;2024-01-15T02:51:35;7.10;;;6.68;;
25365;SDS011;13315;48.274;-1.900;2024-01-15T02:54:01;7.53;;;7.07;;
25365;SDS011;13315;48.274;-1.900;2024-01-15T02:56:27;7.38;;;6.97;;
25365;SDS011;13315;48.274;-1.900;2024-01-15T02:58:53;7.00;;;6.63;;
25365;SDS011;13315;48.274;-1.900;2024-01-15T03:01:19;8.85;;;7.43;;
25365;SDS011;13315;48.274;-1.900;2024-01-15T03:03:46;6.57;;;6.07;;
25365;SDS011;13315;48.274;-1.900;2024-01-15T03:06:12;8.50;;;7.85;;
25365;SDS011;13315;48.274;-1.900;2024-01-15T03:08:38;7.43;;;6.88;;
25365;SDS011;13315;48.274;-1.900;2024-01-15T03:11:04;9.00;;;8.27;;
25365;SDS011;13315;48.274;-1.900;2024-01-15T03:13:30;8.32;;;7.65;;
25365;SDS011;13315;48.274;-1.900;2024-01-15T03:15:56;9.05;;;8.38;;
25365;SDS011;13315;48.274;-1.900;2024-01-15T03:18:22;7.65;;;7.15;;
25365;SDS011;13315;48.274;-1.900;2024-01-15T03:20:49;8.93;;;8.07;;
25365;SDS011;13315;48.274;-1.900;2024-01-15T03:23:16;8.07;;;7.47;;
25365;SDS011;13315;48.274;-1.900;2024-01-15T03:25:42;9.82;;;8.88;;
25365;SDS011;13315;48.274;-1.900;2024-01-15T03:28:09;8.52;;;8.02;;
25365;SDS011;13315;48.274;-1.900;2024-01-15T03:30:35;9.32;;;8.55;;
25365;SDS011;13315;48.274;-1.900;2024-01-15T03:33:02;7.20;;;6.78;;
25365;SDS011;13315;48.274;-1.900;2024-01-15T03:35:28;8.38;;;7.65;;
25365;SDS011;13315;48.274;-1.900;2024-01-15T03:37:55;7.53;;;7.03;;
25365;SDS011;13315;48.274;-1.900;2024-01-15T03:40:22;9.93;;;8.82;;
25365;SDS011;13315;48.274;-1.900;2024-01-15T03:42:48;10.13;;;9.45;;
25365;SDS011;13315;48.274;-1.900;2024-01-15T03:45:14;8.32;;;7.68;;
25365;SDS011;13315;48.274;-1.900;2024-01-15T03:47:40;8.10;;;7.65;;
25365;SDS011;13315;48.274;-1.900;2024-01-15T03:50:06;9.25;;;8.55;;
25365;SDS011;13315;48.274;-1.900;2024-01-15T03:52:32;9.35;;;8.65;;
25365;SDS011;13315;48.274;-1.900;2024-01-15T03:54:58;9.13;;;8.35;;
25365;SDS011;13315;48.274;-1.900;2024-01-15T03:57:25;11.10;;;8.55;;
25365;SDS011;13315;48.274;-1.900;2024-01-15T03:59:51;7.18;;;6.82;;
25365;SDS011;13315;48.274;-1.900;2024-01-15T04:02:17;13.73;;;8.60;;
25365;SDS011;13315;48.274;-1.900;2024-01-15T04:04:43;9.55;;;8.52;;
25365;SDS011;13315;48.274;-1.900;2024-01-15T04:07:10;8.00;;;7.50;;
25365;SDS011;13315;48.274;-1.900;2024-01-15T04:09:36;8.15;;;7.55;;
25365;SDS011;13315;48.274;-1.900;2024-01-15T04:12:02;9.68;;;8.77;;
25365;SDS011;13315;48.274;-1.900;2024-01-15T04:14:28;8.35;;;7.53;;
25365;SDS011;13315;48.274;-1.900;2024-01-15T04:16:54;7.30;;;6.75;;
25365;SDS011;13315;48.274;-1.900;2024-01-15T04:19:20;9.07;;;8.25;;
25365;SDS011;13315;48.274;-1.900;2024-01-15T04:21:47;7.38;;;6.97;;
25365;SDS011;13315;48.274;-1.900;2024-01-15T04:24:13;8.35;;;6.78;;
25365;SDS011;13315;48.274;-1.900;2024-01-15T04:26:39;8.00;;;7.25;;
25365;SDS011;13315;48.274;-1.900;2024-01-15T04:29:05;7.65;;;7.15;;
25365;SDS011;13315;48.274;-1.900;2024-01-15T04:31:31;6.03;;;5.72;;
25365;SDS011;13315;48.274;-1.900;2024-01-15T04:33:57;9.43;;;8.27;;
25365;SDS011;13315;48.274;-1.900;2024-01-15T04:36:23;6.93;;;6.55;;
25365;SDS011;13315;48.274;-1.900;2024-01-15T04:38:49;7.57;;;7.13;;
25365;SDS011;13315;48.274;-1.900;2024-01-15T04:41:16;6.45;;;6.15;;
25365;SDS011;13315;48.274;-1.900;2024-01-15T04:43:42;8.15;;;7.60;;
25365;SDS011;13315;48.274;-1.900;2024-01-15T04:46:08;9.43;;;8.63;;
25365;SDS011;13315;48.274;-1.900;2024-01-15T04:48:35;8.07;;;7.50;;
25365;SDS011;13315;48.274;-1.900;2024-01-15T04:51:03;7.65;;;7.20;;
25365;SDS011;13315;48.274;-1.900;2024-01-15T04:53:29;9.13;;;8.55;;
25365;SDS011;13315;48.274;-1.900;2024-01-15T04:55:55;8.23;;;7.65;;
25365;SDS011;13315;48.274;-1.900;2024-01-15T04:58:21;8.18;;;7.68;;
25365;SDS011;13315;48.274;-1.900;2024-01-15T05:00:52;8.23;;;7.50;;
25365;SDS011;13315;48.274;-1.900;2024-01-15T05:03:19;7.13;;;6.45;;
25365;SDS011;13315;48.274;-1.900;2024-01-15T05:05:45;7.80;;;7.22;;
25365;SDS011;13315;48.274;-1.900;2024-01-15T05:08:11;7.20;;;6.70;;
25365;SDS011;13315;48.274;-1.900;2024-01-15T05:10:37;7.95;;;7.38;;
25365;SDS011;13315;48.274;-1.900;2024-01-15T05:13:03;7.28;;;6.88;;
25365;SDS011;13315;48.274;-1.900;2024-01-15T05:15:29;7.18;;;6.78;;
25365;SDS011;13315;48.274;-1.900;2024-01-15T05:17:55;6.95;;;6.55;;
25365;SDS011;13315;48.274;-1.900;2024-01-15T05:20:22;8.20;;;7.38;;
25365;SDS011;13315;48.274;-1.900;2024-01-15T05:22:48;5.70;;;5.40;;
25365;SDS011;13315;48.274;-1.900;2024-01-15T05:25:14;5.60;;;5.30;;
25365;SDS011;13315;48.274;-1.900;2024-01-15T05:27:40;7.10;;;6.70;;
25365;SDS011;13315;48.274;-1.900;2024-01-15T05:30:06;6.70;;;6.40;;
25365;SDS011;13315;48.274;-1.900;2024-01-15T05:32:34;6.40;;;6.03;;
25365;SDS011;13315;48.274;-1.900;2024-01-15T05:35:00;7.53;;;7.07;;
25365;SDS011;13315;48.274;-1.900;2024-01-15T05:37:26;7.70;;;7.30;;
25365;SDS011;13315;48.274;-1.900;2024-01-15T05:39:52;5.97;;;5.68;;
25365;SDS011;13315;48.274;-1.900;2024-01-15T05:42:18;6.78;;;6.28;;
25365;SDS011;13315;48.274;-1.900;2024-01-15T05:44:44;8.75;;;8.13;;
25365;SDS011;13315;48.274;-1.900;2024-01-15T05:47:10;8.88;;;8.18;;
25365;SDS011;13315;48.274;-1.900;2024-01-15T05:49:36;7.20;;;6.60;;
25365;SDS011;13315;48.274;-1.900;2024-01-15T05:52:04;6.53;;;6.13;;
25365;SDS011;13315;48.274;-1.900;2024-01-15T05:54:30;7.22;;;6.82;;
25365;SDS011;13315;48.274;-1.900;2024-01-15T05:56:56;7.35;;;6.88;;
25365;SDS011;13315;48.274;-1.900;2024-01-15T05:59:22;7.47;;;6.97;;
25365;SDS011;13315;48.274;-1.900;2024-01-15T06:01:48;7.40;;;6.93;;
25365;SDS011;13315;48.274;-1.900;2024-01-15T06:04:15;6.25;;;5.95;;
25365;SDS011;13315;48.274;-1.900;2024-01-15T06:06:41;8.68;;;7.97;;
25365;SDS011;13315;48.274;-1.900;2024-01-15T06:09:07;6.20;;;5.80;;
25365;SDS011;13315;48.274;-1.900;2024-01-15T06:11:34;7.22;;;6.72;;
25365;SDS011;13315;48.274;-1.900;2024-01-15T06:14:00;8.23;;;7.43;;
25365;SDS011;13315;48.274;-1.900;2024-01-15T06:16:27;8.00;;;7.38;;
25365;SDS011;13315;48.274;-1.900;2024-01-15T06:18:53;6.97;;;6.60;;
25365;SDS011;13315;48.274;-1.900;2024-01-15T06:21:19;7.85;;;7.35;;
25365;SDS011;13315;48.274;-1.900;2024-01-15T06:23:46;8.30;;;7.55;;
25365;SDS011;13315;48.274;-1.900;2024-01-15T06:26:12;7.32;;;6.82;;
25365;SDS011;13315;48.274;-1.900;2024-01-15T06:28:38;6.80;;;6.45;;
25365;SDS011;13315;48.274;-1.900;2024-01-15T06:31:05;8.10;;;7.38;;
25365;SDS011;13315;48.274;-1.900;2024-01-15T06:33:32;6.40;;;6.10;;
25365;SDS011;13315;48.274;-1.900;2024-01-15T06:35:58;6.97;;;6.43;;
25365;SDS011;13315;48.274;-1.900;2024-01-15T06:38:24;6.57;;;6.18;;
25365;SDS011;13315;48.274;-1.900;2024-01-15T06:40:51;7.40;;;6.90;;
25365;SDS011;13315;48.274;-1.900;2024-01-15T06:43:17;6.15;;;5.85;;
25365;SDS011;13315;48.274;-1.900;2024-01-15T06:45:44;6.90;;;6.47;;
25365;SDS011;13315;48.274;-1.900;2024-01-15T06:48:10;6.82;;;6.45;;
25365;SDS011;13315;48.274;-1.900;2024-01-15T06:50:39;6.90;;;6.25;;
25365;SDS011;13315;48.274;-1.900;2024-01-15T06:53:05;7.53;;;7.03;;
25365;SDS011;13315;48.274;-1.900;2024-01-15T06:55:31;9.07;;;8.38;;
25365;SDS011;13315;48.274;-1.900;2024-01-15T06:57:57;10.05;;;9.25;;
25365;SDS011;13315;48.274;-1.900;2024-01-15T07:00:23;8.27;;;7.50;;
25365;SDS011;13315;48.274;-1.900;2024-01-15T07:02:49;6.95;;;6.65;;
25365;SDS011;13315;48.274;-1.900;2024-01-15T07:05:17;7.28;;;6.85;;
25365;SDS011;13315;48.274;-1.900;2024-01-15T07:07:43;6.60;;;6.10;;
25365;SDS011;13315;48.274;-1.900;2024-01-15T07:10:09;9.48;;;8.85;;
25365;SDS011;13315;48.274;-1.900;2024-01-15T07:12:35;6.78;;;6.38;;
25365;SDS011;13315;48.274;-1.900;2024-01-15T07:15:02;7.75;;;7.25;;
25365;SDS011;13315;48.274;-1.900;2024-01-15T07:17:29;7.47;;;7.00;;
25365;SDS011;13315;48.274;-1.900;2024-01-15T07:19:56;7.05;;;6.40;;
25365;SDS011;13315;48.274;-1.900;2024-01-15T07:22:22;7.10;;;6.60;;
25365;SDS011;13315;48.274;-1.900;2024-01-15T07:24:48;6.63;;;6.32;;
25365;SDS011;13315;48.274;-1.900;2024-01-15T07:27:14;6.45;;;6.05;;
25365;SDS011;13315;48.274;-1.900;2024-01-15T07:29:41;7.40;;;6.88;;
25365;SDS011;13315;48.274;-1.900;2024-01-15T07:32:08;5.93;;;5.43;;
25365;SDS011;13315;48.274;-1.900;2024-01-15T07:34:34;5.95;;;5.63;;
25365;SDS011;13315;48.274;-1.900;2024-01-15T07:37:00;5.97;;;5.57;;
25365;SDS011;13315;48.274;-1.900;2024-01-15T07:39:27;6.10;;;5.80;;
25365;SDS011;13315;48.274;-1.900;2024-01-15T07:41:54;7.53;;;7.00;;
25365;SDS011;13315;48.274;-1.900;2024-01-15T07:44:20;7.20;;;6.75;;
25365;SDS011;13315;48.274;-1.900;2024-01-15T07:46:47;6.95;;;6.50;;
25365;SDS011;13315;48.274;-1.900;2024-01-15T07:49:13;6.78;;;6.32;;
25365;SDS011;13315;48.274;-1.900;2024-01-15T07:51:39;7.78;;;7.28;;
25365;SDS011;13315;48.274;-1.900;2024-01-15T07:54:05;5.95;;;5.68;;
25365;SDS011;13315;48.274;-1.900;2024-01-15T07:56:32;11.95;;;6.65;;
25365;SDS011;13315;48.274;-1.900;2024-01-15T07:58:59;5.93;;;5.63;;
25365;SDS011;13315;48.274;-1.900;2024-01-15T08:01:25;7.00;;;6.60;;
25365;SDS011;13315;48.274;-1.900;2024-01-15T08:03:51;7.47;;;6.53;;
25365;SDS011;13315;48.274;-1.900;2024-01-15T08:06:19;7.95;;;7.45;;
25365;SDS011;13315;48.274;-1.900;2024-01-15T08:08:46;5.80;;;5.40;;
25365;SDS011;13315;48.274;-1.900;2024-01-15T08:11:12;6.93;;;6.45;;
25365;SDS011;13315;48.274;-1.900;2024-01-15T08:13:38;6.90;;;6.50;;
25365;SDS011;13315;48.274;-1.900;2024-01-15T08:16:04;6.72;;;6.43;;
25365;SDS011;13315;48.274;-1.900;2024-01-15T08:18:30;6.13;;;5.82;;
25365;SDS011;13315;48.274;-1.900;2024-01-15T08:20:56;7.93;;;7.53;;
25365;SDS011;13315;48.274;-1.900;2024-01-15T08:23:22;8.60;;;7.45;;
25365;SDS011;13315;48.274;-1.900;2024-01-15T08:25:49;7.45;;;7.05;;
25365;SDS011;13315;48.274;-1.900;2024-01-15T08:28:16;7.28;;;6.68;;
25365;SDS011;13315;48.274;-1.900;2024-01-15T08:30:42;7.28;;;6.88;;
25365;SDS011;13315;48.274;-1.900;2024-01-15T08:33:08;8.50;;;7.93;;
25365;SDS011;13315;48.274;-1.900;2024-01-15T08:35:34;5.53;;;5.32;;
25365;SDS011;13315;48.274;-1.900;2024-01-15T08:38:00;6.38;;;5.95;;
25365;SDS011;13315;48.274;-1.900;2024-01-15T08:40:26;6.63;;;6.22;;
25365;SDS011;13315;48.274;-1.900;2024-01-15T08:42:52;7.22;;;6.63;;
25365;SDS011;13315;48.274;-1.900;2024-01-15T08:45:19;5.85;;;5.55;;
25365;SDS011;13315;48.274;-1.900;2024-01-15T08:47:46;5.60;;;5.35;;
25365;SDS011;13315;48.274;-1.900;2024-01-15T08:50:12;6.82;;;6.22;;
25365;SDS011;13315;48.274;-1.900;2024-01-15T08:52:38;7.18;;;6.70;;
25365;SDS011;13315;48.274;-1.900;2024-01-15T08:55:05;7.18;;;6.57;;
25365;SDS011;13315;48.274;-1.900;2024-01-15T08:57:32;8.05;;;7.55;;
25365;SDS011;13315;48.274;-1.900;2024-01-15T08:59:58;6.50;;;6.20;;
25365;SDS011;13315;48.274;-1.900;2024-01-15T09:02:24;6.80;;;6.50;;
25365;SDS011;13315;48.274;-1.900;2024-01-15T09:04:50;7.85;;;7.35;;
25365;SDS011;13315;48.274;-1.900;2024-01-15T09:07:16;7.15;;;6.70;;
25365;SDS011;13315;48.274;-1.900;2024-01-15T09:09:43;7.35;;;6.88;;
25365;SDS011;13315;48.274;-1.900;2024-01-15T09:12:09;8.10;;;7.60;;
25365;SDS011;13315;48.274;-1.900;2024-01-15T09:14:35;7.72;;;7.15;;
25365;SDS011;13315;48.274;-1.900;2024-01-15T09:17:01;6.15;;;5.85;;
25365;SDS011;13315;48.274;-1.900;2024-01-15T09:19:28;7.85;;;7.35;;
25365;SDS011;13315;48.274;-1.900;2024-01-15T09:21:54;7.80;;;7.22;;
25365;SDS011;13315;48.274;-1.900;2024-01-15T09:24:21;6.57;;;6.10;;
25365;SDS011;13315;48.274;-1.900;2024-01-15T09:26:47;6.97;;;6.47;;
25365;SDS011;13315;48.274;-1.900;2024-01-15T09:29:13;7.82;;;7.38;;
25365;SDS011;13315;48.274;-1.900;2024-01-15T09:31:41;8.13;;;7.72;;
25365;SDS011;13315;48.274;-1.900;2024-01-15T09:34:07;6.90;;;6.43;;
25365;SDS011;13315;48.274;-1.900;2024-01-15T09:36:38;7.38;;;6.97;;
25365;SDS011;13315;48.274;-1.900;2024-01-15T09:39:05;8.32;;;7.82;;
25365;SDS011;13315;48.274;-1.900;2024-01-15T09:41:34;9.18;;;8.43;;
25365;SDS011;13315;48.274;-1.900;2024-01-15T09:44:00;8.30;;;7.60;;
25365;SDS011;13315;48.274;-1.900;2024-01-15T09:46:27;6.60;;;6.20;;
25365;SDS011;13315;48.274;-1.900;2024-01-15T09:48:53;6.60;;;6.25;;
25365;SDS011;13315;48.274;-1.900;2024-01-15T09:51:20;6.45;;;6.15;;
25365;SDS011;13315;48.274;-1.900;2024-01-15T09:53:46;7.45;;;6.93;;
25365;SDS011;13315;48.274;-1.900;2024-01-15T09:56:13;8.05;;;7.00;;
25365;SDS011;13315;48.274;-1.900;2024-01-15T09:58:39;7.03;;;6.60;;
25365;SDS011;13315;48.274;-1.900;2024-01-15T10:01:07;6.97;;;6.40;;
25365;SDS011;13315;48.274;-1.900;2024-01-15T10:03:34;8.43;;;7.82;;
25365;SDS011;13315;48.274;-1.900;2024-01-15T10:06:00;8.25;;;7.60;;
25365;SDS011;13315;48.274;-1.900;2024-01-15T10:08:27;6.65;;;6.25;;
25365;SDS011;13315;48.274;-1.900;2024-01-15T10:10:53;8.32;;;6.40;;
25365;SDS011;13315;48.274;-1.900;2024-01-15T10:13:19;7.60;;;6.95;;
25365;SDS011;13315;48.274;-1.900;2024-01-15T10:15:46;6.90;;;6.55;;
25365;SDS011;13315;48.274;-1.900;2024-01-15T10:18:12;8.23;;;7.63;;
25365;SDS011;13315;48.274;-1.900;2024-01-15T10:20:39;6.90;;;6.30;;
25365;SDS011;13315;48.274;-1.900;2024-01-15T10:23:05;6.28;;;5.97;;
25365;SDS011;13315;48.274;-1.900;2024-01-15T10:25:31;7.20;;;6.70;;
25365;SDS011;13315;48.274;-1.900;2024-01-15T10:28:01;6.28;;;5.95;;
25365;SDS011;13315;48.274;-1.900;2024-01-15T10:30:27;7.22;;;6.72;;
25365;SDS011;13315;48.274;-1.900;2024-01-15T10:33:01;7.35;;;6.60;;
25365;SDS011;13315;48.274;-1.900;2024-01-15T10:35:28;6.28;;;5.68;;
25365;SDS011;13315;48.274;-1.900;2024-01-15T10:37:54;5.82;;;5.43;;
25365;SDS011;13315;48.274;-1.900;2024-01-15T10:40:21;6.65;;;6.25;;
25365;SDS011;13315;48.274;-1.900;2024-01-15T10:42:47;7.05;;;6.50;;
25365;SDS011;13315;48.274;-1.900;2024-01-15T10:45:13;5.85;;;5.55;;
25365;SDS011;13315;48.274;-1.900;2024-01-15T10:47:40;5.97;;;5.57;;
25365;SDS011;13315;48.274;-1.900;2024-01-15T10:50:06;6.07;;;5.70;;
25365;SDS011;13315;48.274;-1.900;2024-01-15T10:52:34;5.18;;;4.93;;
25365;SDS011;13315;48.274;-1.900;2024-01-15T10:55:00;6.40;;;6.00;;
25365;SDS011;13315;48.274;-1.900;2024-01-15T10:57:27;5.78;;;5.47;;
25365;SDS011;13315;48.274;-1.900;2024-01-15T10:59:54;5.65;;;5.35;;
25365;SDS011;13315;48.274;-1.900;2024-01-15T11:02:20;6.78;;;6.18;;
25365;SDS011;13315;48.274;-1.900;2024-01-15T11:04:46;18.40;;;17.30;;
25365;SDS011;13315;48.274;-1.900;2024-01-15T11:07:13;19.88;;;18.45;;
25365;SDS011;13315;48.274;-1.900;2024-01-15T11:09:39;16.38;;;15.40;;
25365;SDS011;13315;48.274;-1.900;2024-01-15T11:12:09;18.73;;;17.63;;
25365;SDS011;13315;48.274;-1.900;2024-01-15T11:14:39;19.35;;;18.13;;
25365;SDS011;13315;48.274;-1.900;2024-01-15T11:17:08;19.05;;;17.95;;
25365;SDS011;13315;48.274;-1.900;2024-01-15T11:19:53;18.00;;;16.90;;
25365;SDS011;13315;48.274;-1.900;2024-01-15T11:25:01;15.32;;;14.52;;
25365;SDS011;13315;48.274;-1.900;2024-01-15T11:27:43;18.70;;;17.52;;
25365;SDS011;13315;48.274;-1.900;2024-01-15T11:30:10;20.13;;;18.70;;
25365;SDS011;13315;48.274;-1.900;2024-01-15T11:32:37;19.20;;;17.90;;
25365;SDS011;13315;48.274;-1.900;2024-01-15T11:35:07;18.00;;;16.95;;
25365;SDS011;13315;48.274;-1.900;2024-01-15T11:43:01;13.75;;;12.95;;
25365;SDS011;13315;48.274;-1.900;2024-01-15T11:45:28;4.72;;;4.40;;
25365;SDS011;13315;48.274;-1.900;2024-01-15T11:50:21;4.28;;;3.95;;
25365;SDS011;13315;48.274;-1.900;2024-01-15T11:52:51;4.22;;;3.92;;
25365;SDS011;13315;48.274;-1.900;2024-01-15T11:55:22;4.15;;;3.95;;
25365;SDS011;13315;48.274;-1.900;2024-01-15T11:57:52;5.88;;;4.20;;
25365;SDS011;13315;48.274;-1.900;2024-01-15T12:00:21;3.42;;;3.15;;
25365;SDS011;13315;48.274;-1.900;2024-01-15T12:02:48;4.25;;;3.92;;
25365;SDS011;13315;48.274;-1.900;2024-01-15T12:05:14;3.97;;;3.78;;
25365;SDS011;13315;48.274;-1.900;2024-01-15T12:07:44;3.60;;;3.30;;
25365;SDS011;13315;48.274;-1.900;2024-01-15T12:10:11;3.80;;;3.60;;
25365;SDS011;13315;48.274;-1.900;2024-01-15T12:15:21;3.80;;;3.50;;
25365;SDS011;13315;48.274;-1.900;2024-01-15T12:17:47;4.18;;;3.85;;
25365;SDS011;13315;48.274;-1.900;2024-01-15T12:20:14;3.70;;;3.50;;
25365;SDS011;13315;48.274;-1.900;2024-01-15T12:22:41;2.80;;;2.70;;
25365;SDS011;13315;48.274;-1.900;2024-01-15T12:25:07;4.30;;;3.08;;
25365;SDS011;13315;48.274;-1.900;2024-01-15T12:27:33;6.25;;;3.85;;
25365;SDS011;13315;48.274;-1.900;2024-01-15T12:29:59;3.03;;;2.90;;
25365;SDS011;13315;48.274;-1.900;2024-01-15T12:32:25;2.65;;;2.55;;
25365;SDS011;13315;48.274;-1.900;2024-01-15T12:34:51;2.50;;;2.40;;
25365;SDS011;13315;48.274;-1.900;2024-01-15T12:37:18;2.40;;;2.22;;
25365;SDS011;13315;48.274;-1.900;2024-01-15T12:39:47;2.30;;;2.20;;
25365;SDS011;13315;48.274;-1.900;2024-01-15T12:42:16;2.58;;;2.47;;
25365;SDS011;13315;48.274;-1.900;2024-01-15T12:44:43;2.30;;;2.20;;
25365;SDS011;13315;48.274;-1.900;2024-01-15T12:47:10;2.20;;;2.10;;
25365;SDS011;13315;48.274;-1.900;2024-01-15T12:49:37;3.20;;;2.20;;
25365;SDS011;13315;48.274;-1.900;2024-01-15T12:52:03;2.20;;;2.10;;
25365;SDS011;13315;48.274;-1.900;2024-01-15T12:54:29;2.45;;;2.28;;
25365;SDS011;13315;48.274;-1.900;2024-01-15T12:56:55;2.47;;;2.38;;
25365;SDS011;13315;48.274;-1.900;2024-01-15T12:59:21;2.40;;;2.30;;
25365;SDS011;13315;48.274;-1.900;2024-01-15T13:01:47;2.40;;;2.30;;
25365;SDS011;13315;48.274;-1.900;2024-01-15T13:04:23;2.58;;;2.40;;
25365;SDS011;13315;48.274;-1.900;2024-01-15T13:06:49;2.40;;;2.30;;
25365;SDS011;13315;48.274;-1.900;2024-01-15T13:09:15;2.17;;;2.08;;
25365;SDS011;13315;48.274;-1.900;2024-01-15T13:11:42;4.05;;;3.67;;
25365;SDS011;13315;48.274;-1.900;2024-01-15T13:14:08;2.97;;;2.85;;
25365;SDS011;13315;48.274;-1.900;2024-01-15T13:16:34;2.13;;;2.03;;
25365;SDS011;13315;48.274;-1.900;2024-01-15T13:19:00;2.22;;;2.10;;
25365;SDS011;13315;48.274;-1.900;2024-01-15T13:21:28;2.10;;;2.00;;
25365;SDS011;13315;48.274;-1.900;2024-01-15T13:23:54;2.10;;;2.00;;
25365;SDS011;13315;48.274;-1.900;2024-01-15T13:26:20;2.15;;;1.90;;
25365;SDS011;13315;48.274;-1.900;2024-01-15T13:28:46;1.98;;;1.88;;
25365;SDS011;13315;48.274;-1.900;2024-01-15T13:31:12;2.00;;;1.88;;
25365;SDS011;13315;48.274;-1.900;2024-01-15T13:33:39;4.50;;;2.53;;
25365;SDS011;13315;48.274;-1.900;2024-01-15T13:36:05;2.05;;;1.95;;
25365;SDS011;13315;48.274;-1.900;2024-01-15T13:38:35;2.75;;;2.53;;
25365;SDS011;13315;48.274;-1.900;2024-01-15T13:41:02;1.90;;;1.80;;
25365;SDS011;13315;48.274;-1.900;2024-01-15T13:43:29;1.77;;;1.77;;
25365;SDS011;13315;48.274;-1.900;2024-01-15T13:45:55;1.60;;;1.60;;
25365;SDS011;13315;48.274;-1.900;2024-01-15T13:48:21;2.30;;;2.10;;
25365;SDS011;13315;48.274;-1.900;2024-01-15T13:50:47;2.20;;;2.10;;
25365;SDS011;13315;48.274;-1.900;2024-01-15T13:53:15;2.28;;;2.17;;
25365;SDS011;13315;48.274;-1.900;2024-01-15T13:55:41;2.28;;;2.08;;
25365;SDS011;13315;48.274;-1.900;2024-01-15T13:58:07;1.80;;;1.70;;
25365;SDS011;13315;48.274;-1.900;2024-01-15T14:00:33;2.30;;;2.20;;
25365;SDS011;13315;48.274;-1.900;2024-01-15T14:02:59;1.60;;;1.60;;
25365;SDS011;13315;48.274;-1.900;2024-01-15T14:05:25;2.13;;;2.03;;
25365;SDS011;13315;48.274;-1.900;2024-01-15T14:07:51;1.90;;;1.80;;
25365;SDS011;13315;48.274;-1.900;2024-01-15T14:10:17;1.50;;;1.50;;
25365;SDS011;13315;48.274;-1.900;2024-01-15T14:12:43;2.53;;;2.42;;
25365;SDS011;13315;48.274;-1.900;2024-01-15T14:15:09;1.60;;;1.60;;
25365;SDS011;13315;48.274;-1.900;2024-01-15T14:17:35;1.40;;;1.40;;
25365;SDS011;13315;48.274;-1.900;2024-01-15T14:20:01;1.70;;;1.70;;
25365;SDS011;13315;48.274;-1.900;2024-01-15T14:22:30;2.42;;;2.33;;
25365;SDS011;13315;48.274;-1.900;2024-01-15T14:24:56;4.05;;;1.98;;
25365;SDS011;13315;48.274;-1.900;2024-01-15T14:27:22;1.65;;;1.65;;
25365;SDS011;13315;48.274;-1.900;2024-01-15T14:29:48;1.42;;;1.42;;
25365;SDS011;13315;48.274;-1.900;2024-01-15T14:32:14;1.70;;;1.70;;
25365;SDS011;13315;48.274;-1.900;2024-01-15T14:34:40;1.50;;;1.50;;
25365;SDS011;13315;48.274;-1.900;2024-01-15T14:37:06;1.85;;;1.85;;
25365;SDS011;13315;48.274;-1.900;2024-01-15T14:39:32;1.60;;;1.60;;
25365;SDS011;13315;48.274;-1.900;2024-01-15T14:41:59;1.80;;;1.70;;